Time;durP1;ratioP1;P1;durP2;ratioP2;P2;SDS_P1;SDS_P2;PMS_P1;PMS_P2;Temp;Humidity;BMP_temperature;BMP_pressure;BME280_temperature;BME280_humidity;BME280_pressure;Samples;Min_cycle;Max_cycle;Signal;HPM_P1;HPM_P2
2021/09/08 00:01:17;;;;;;;;;15.75;12.00;;;;;21.65;45.49;100834.84;5095930;27;66725;-60
2021/09/08 00:03:42;;;;;;;;;15.25;12.25;;;;;21.61;46.14;100837.06;5096029;27;62607;-60
2021/09/08 00:06:07;;;;;;;;;18.00;13.25;;;;;21.57;46.48;100830.47;5095940;27;62165;-61
2021/09/08 00:08:33;;;;;;;;;13.25;12.00;;;;;21.53;45.96;100828.41;5096670;27;45220;-61
2021/09/08 00:10:58;;;;;;;;;13.00;12.00;;;;;21.50;46.00;100830.44;5096731;27;45403;-60
2021/09/08 00:13:24;;;;;;;;;12.50;11.25;;;;;21.50;46.22;100816.25;5095508;27;75280;-61
2021/09/08 00:15:50;;;;;;;;;18.25;14.75;;;;;21.47;46.60;100812.13;5096500;27;45291;-60
2021/09/08 00:18:15;;;;;;;;;15.00;12.75;;;;;21.47;46.27;100817.50;5095888;27;63803;-61
2021/09/08 00:20:40;;;;;;;;;18.75;16.00;;;;;21.49;46.64;100815.44;5099820;27;45318;-61
2021/09/08 00:23:06;;;;;;;;;14.25;14.00;;;;;21.51;46.55;100809.88;5100015;27;46155;-60
2021/09/08 00:25:31;;;;;;;;;14.50;13.00;;;;;21.49;46.03;100796.72;5099054;27;66935;-60
2021/09/08 00:27:57;;;;;;;;;14.25;11.25;;;;;21.46;46.76;100801.66;5099146;27;45280;-60
2021/09/08 00:30:22;;;;;;;;;10.00;9.75;;;;;21.39;46.48;100790.94;5099222;27;67064;-61
2021/09/08 00:32:47;;;;;;;;;12.25;11.00;;;;;21.34;47.07;100794.22;5098973;27;70010;-60
2021/09/08 00:35:13;;;;;;;;;14.00;10.50;;;;;21.32;46.74;100795.44;5099945;27;45249;-60
2021/09/08 00:37:39;;;;;;;;;11.25;10.50;;;;;21.29;46.96;100788.66;5100041;27;45398;-60
2021/09/08 00:40:05;;;;;;;;;16.00;13.00;;;;;21.27;47.05;100781.84;5099888;27;45736;-60
2021/09/08 00:42:30;;;;;;;;;10.25;10.25;;;;;21.24;46.98;100782.25;5099454;27;50200;-60
2021/09/08 00:44:56;;;;;;;;;12.50;12.00;;;;;21.20;46.84;100776.50;5099398;27;49839;-60
2021/09/08 00:47:21;;;;;;;;;10.00;10.00;;;;;21.16;47.35;100778.75;5099768;27;45357;-61
2021/09/08 00:49:47;;;;;;;;;12.00;10.25;;;;;21.10;47.15;100773.38;5099683;27;45346;-61
2021/09/08 00:52:13;;;;;;;;;11.75;10.25;;;;;21.04;47.42;100767.00;5099125;27;56061;-60
2021/09/08 00:54:38;;;;;;;;;12.50;10.25;;;;;21.02;47.52;100767.19;5099685;27;45875;-60
2021/09/08 00:57:04;;;;;;;;;13.50;12.50;;;;;21.01;47.71;100768.19;5099522;27;45777;-60
2021/09/08 00:59:30;;;;;;;;;10.50;10.50;;;;;21.02;47.62;100769.03;5099529;27;45632;-61
2021/09/08 01:01:57;;;;;;;;;14.25;12.00;;;;;21.01;47.81;100767.41;5099491;27;46054;-59
2021/09/08 01:04:23;;;;;;;;;12.00;10.25;;;;;20.97;48.00;100763.47;5099316;27;45350;-60
2021/09/08 01:06:48;;;;;;;;;13.50;12.00;;;;;20.92;47.77;100760.56;5099514;27;45721;-61
2021/09/08 01:09:14;;;;;;;;;15.75;13.00;;;;;20.90;47.91;100766.13;5098639;27;65813;-61
2021/09/08 01:11:39;;;;;;;;;11.75;10.75;;;;;20.87;47.86;100766.53;5081059;27;46045;-59
2021/09/08 01:14:05;;;;;;;;;13.75;12.75;;;;;20.84;47.88;100757.03;5080259;27;64576;-60
2021/09/08 01:16:30;;;;;;;;;15.50;13.00;;;;;20.82;47.98;100752.94;5098473;27;61942;-60
2021/09/08 01:18:55;;;;;;;;;16.00;12.25;;;;;20.84;48.41;100750.91;5098844;27;56319;-60
2021/09/08 01:21:21;;;;;;;;;15.75;13.50;;;;;20.82;48.30;100745.75;5098714;27;48967;-61
2021/09/08 01:23:46;;;;;;;;;11.25;11.25;;;;;20.85;48.29;100753.34;5098360;27;64082;-60
2021/09/08 01:26:12;;;;;;;;;12.00;10.75;;;;;20.84;48.52;100746.38;5098305;27;63762;-60
2021/09/08 01:28:37;;;;;;;;;13.75;11.75;;;;;20.80;48.20;100745.13;5080324;27;45608;-60
2021/09/08 01:31:03;;;;;;;;;14.50;12.25;;;;;20.79;48.72;100751.47;5098515;27;45955;-60
2021/09/08 01:33:29;;;;;;;;;13.00;9.25;;;;;20.77;48.48;100750.84;5098293;27;45467;-60
2021/09/08 01:35:54;;;;;;;;;11.75;11.00;;;;;20.75;49.05;100744.84;5099088;27;45686;-60
2021/09/08 01:38:19;;;;;;;;;14.25;12.00;;;;;20.73;48.89;100750.41;5098753;27;45523;-60
2021/09/08 01:40:45;;;;;;;;;16.50;12.00;;;;;20.72;48.56;100742.56;5097686;27;74731;-61
2021/09/08 01:43:10;;;;;;;;;16.75;12.75;;;;;20.70;48.94;100736.59;5097876;27;70557;-61
2021/09/08 01:45:41;;;;;;;;;13.00;11.00;;;;;20.70;48.79;100733.94;5080541;27;45449;-59
2021/09/08 01:48:06;;;;;;;;;12.50;12.50;;;;;20.67;48.64;100739.66;5098449;27;45305;-61
2021/09/08 01:50:32;;;;;;;;;16.25;14.75;;;;;20.63;48.76;100738.44;5097546;27;68006;-60
2021/09/08 01:52:57;;;;;;;;;15.75;13.25;;;;;20.59;48.98;100733.50;5097779;27;66340;-61
2021/09/08 01:55:23;;;;;;;;;10.00;9.50;;;;;20.58;49.19;100728.34;5098864;27;45244;-61
2021/09/08 01:57:49;;;;;;;;;14.00;12.00;;;;;20.59;49.07;100728.16;5098764;27;45311;-60
2021/09/08 02:00:14;;;;;;;;;13.25;9.75;;;;;20.60;49.14;100723.63;5080138;27;47545;-60
2021/09/08 02:02:40;;;;;;;;;11.00;11.00;;;;;20.59;48.77;100725.50;5098426;27;45239;-60
2021/09/08 02:05:06;;;;;;;;;12.75;12.75;;;;;20.55;49.11;100726.91;5080250;27;45401;-61
2021/09/08 02:07:31;;;;;;;;;15.00;13.00;;;;;20.52;49.34;100727.31;5080260;27;45529;-60
2021/09/08 02:09:57;;;;;;;;;14.00;14.00;;;;;20.51;49.34;100722.97;5097888;27;62438;-60
2021/09/08 02:12:22;;;;;;;;;15.00;11.75;;;;;20.50;49.34;100710.66;5098297;27;45434;-59
2021/09/08 02:14:48;;;;;;;;;12.00;12.00;;;;;20.46;49.51;100710.22;5098407;27;45513;-59
2021/09/08 02:17:13;;;;;;;;;15.75;14.50;;;;;20.46;49.37;100712.06;5097283;27;70252;-60
2021/09/08 02:19:38;;;;;;;;;15.00;12.25;;;;;20.45;49.42;100707.75;5097368;27;68229;-61
2021/09/08 02:22:04;;;;;;;;;15.00;13.00;;;;;20.42;49.75;100708.16;5097192;27;63781;-60
2021/09/08 02:24:29;;;;;;;;;12.50;12.50;;;;;20.39;49.35;100695.19;5097473;27;53417;-60
2021/09/08 02:26:54;;;;;;;;;17.00;14.25;;;;;20.41;49.43;100703.84;5097225;27;64780;-60
2021/09/08 02:29:20;;;;;;;;;13.75;13.75;;;;;20.41;49.33;100699.31;5097816;27;48783;-60
2021/09/08 02:31:45;;;;;;;;;16.25;14.00;;;;;20.41;49.26;100695.81;5097062;27;67464;-60
2021/09/08 02:34:10;;;;;;;;;17.25;14.50;;;;;20.39;49.81;100692.53;5079724;27;45258;-60
2021/09/08 02:36:36;;;;;;;;;18.00;16.00;;;;;20.36;49.47;100695.59;5097200;27;66907;-60
2021/09/08 02:39:01;;;;;;;;;18.50;14.00;;;;;20.33;49.71;100691.47;5097781;27;45378;-61
2021/09/08 02:41:27;;;;;;;;;16.25;13.25;;;;;20.27;50.30;100692.28;5096640;27;45205;-60
2021/09/08 02:43:52;;;;;;;;;13.50;12.50;;;;;20.22;50.58;100682.16;5097908;27;45248;-61
2021/09/08 02:46:18;;;;;;;;;14.00;12.00;;;;;20.19;50.58;100685.22;5096989;27;67218;-60
2021/09/08 02:48:43;;;;;;;;;14.00;13.25;;;;;20.14;50.54;100679.66;5097766;27;45217;-60
2021/09/08 02:51:08;;;;;;;;;13.00;12.25;;;;;20.11;50.70;100685.41;5097593;27;45289;-60
2021/09/08 02:53:34;;;;;;;;;16.00;15.75;;;;;20.08;50.88;100678.59;5096886;27;65068;-59
2021/09/08 02:56:00;;;;;;;;;15.25;14.00;;;;;20.06;50.85;100679.84;5097646;27;45208;-60
2021/09/08 02:58:26;;;;;;;;;18.00;16.50;;;;;20.05;50.70;100670.19;5097093;27;46378;-60
2021/09/08 03:00:51;;;;;;;;;16.00;14.00;;;;;20.05;50.95;100672.84;5097703;27;45330;-60
2021/09/08 03:03:18;;;;;;;;;15.00;14.50;;;;;20.01;51.23;100672.41;5097650;27;45423;-61
2021/09/08 03:05:44;;;;;;;;;16.00;12.75;;;;;20.00;50.92;100666.25;5097529;27;45359;-60
2021/09/08 03:08:09;;;;;;;;;14.25;13.00;;;;;19.98;51.20;100656.78;5097371;27;45459;-61
2021/09/08 03:10:35;;;;;;;;;14.25;13.50;;;;;19.96;51.40;100659.66;5096413;27;73268;-61
2021/09/08 03:13:01;;;;;;;;;15.25;14.50;;;;;19.94;51.37;100652.88;5097608;27;45396;-61
2021/09/08 03:15:26;;;;;;;;;12.25;12.00;;;;;19.92;51.21;100645.06;5097430;27;45426;-60
2021/09/08 03:17:51;;;;;;;;;14.50;13.00;;;;;19.92;51.28;100653.06;5097312;27;46033;-60
2021/09/08 03:20:17;;;;;;;;;14.00;13.00;;;;;19.92;51.53;100646.91;5096363;27;69233;-60
2021/09/08 03:22:42;;;;;;;;;13.00;13.00;;;;;19.89;51.58;100641.94;5097145;27;45398;-61
2021/09/08 03:25:08;;;;;;;;;14.00;13.00;;;;;19.88;51.62;100641.13;5096307;27;65379;-60
2021/09/08 03:27:34;;;;;;;;;17.75;15.25;;;;;19.88;51.92;100641.13;5078976;27;46845;-60
2021/09/08 03:29:59;;;;;;;;;15.50;15.25;;;;;19.86;51.70;100632.47;5097027;27;45252;-60
2021/09/08 03:32:24;;;;;;;;;13.00;12.00;;;;;19.88;51.72;100630.44;5078957;27;45651;-60
2021/09/08 03:34:50;;;;;;;;;17.00;13.75;;;;;19.89;51.59;100634.78;5096173;27;67439;-60
2021/09/08 03:37:15;;;;;;;;;13.50;12.00;;;;;19.87;52.17;100628.81;5096988;27;46841;-60
2021/09/08 03:39:40;;;;;;;;;16.00;15.50;;;;;19.83;52.09;100617.72;5096803;27;53079;-60
2021/09/08 03:42:06;;;;;;;;;17.25;14.25;;;;;19.83;51.79;100622.22;5078026;27;61302;-60
2021/09/08 03:44:31;;;;;;;;;14.75;13.75;;;;;19.83;52.03;100620.38;5096104;27;63306;-60
2021/09/08 03:46:57;;;;;;;;;16.50;14.00;;;;;19.83;51.92;100619.53;5077590;27;69553;-61
2021/09/08 03:49:22;;;;;;;;;15.00;14.00;;;;;19.81;51.91;100618.91;5096001;27;69136;-61
2021/09/08 03:51:47;;;;;;;;;19.25;15.75;;;;;19.76;52.04;100616.84;5096821;27;45307;-61
2021/09/08 03:54:13;;;;;;;;;14.75;14.00;;;;;19.71;52.34;100620.06;5100027;27;45307;-61
2021/09/08 03:56:38;;;;;;;;;16.75;14.50;;;;;19.70;52.47;100614.94;5099370;27;72337;-61
2021/09/08 03:59:03;;;;;;;;;19.00;17.25;;;;;19.67;52.42;100616.16;5100352;27;49219;-60
2021/09/08 04:01:29;;;;;;;;;16.25;15.25;;;;;19.64;52.82;100605.88;5099997;27;54846;-60
2021/09/08 04:03:54;;;;;;;;;16.75;15.00;;;;;19.63;52.76;100606.09;5100223;27;46566;-61
2021/09/08 04:06:20;;;;;;;;;15.75;14.25;;;;;19.59;53.00;100605.66;5099914;27;53520;-59
2021/09/08 04:08:45;;;;;;;;;15.50;15.50;;;;;19.55;53.02;100599.06;5100256;27;45497;-61
2021/09/08 04:11:10;;;;;;;;;20.00;17.25;;;;;19.54;52.75;100592.91;5099687;27;65076;-60
2021/09/08 04:13:36;;;;;;;;;15.75;15.00;;;;;19.54;52.72;100586.75;5100379;27;45327;-59
2021/09/08 04:16:02;;;;;;;;;14.50;14.00;;;;;19.53;53.25;100585.94;5081670;27;46113;-59
2021/09/08 04:18:27;;;;;;;;;16.75;15.50;;;;;19.51;52.99;100571.16;5100142;27;45382;-60
2021/09/08 04:20:52;;;;;;;;;17.75;16.25;;;;;19.51;53.06;100576.50;5099129;27;67467;-61
2021/09/08 04:23:18;;;;;;;;;15.25;14.75;;;;;19.53;53.14;100574.44;5099952;27;46734;-60
2021/09/08 04:25:43;;;;;;;;;15.75;15.75;;;;;19.53;52.90;100569.94;5099164;27;65221;-60
2021/09/08 04:28:09;;;;;;;;;16.00;13.00;;;;;19.53;52.98;100569.94;5099392;27;62908;-60
2021/09/08 04:30:34;;;;;;;;;16.25;14.50;;;;;19.52;52.90;100573.63;5100220;27;45413;-60
2021/09/08 04:32:59;;;;;;;;;16.25;15.25;;;;;19.51;53.29;100576.50;5099192;27;66217;-60
2021/09/08 04:35:26;;;;;;;;;15.00;13.75;;;;;19.48;53.18;100568.88;5099160;27;45733;-61
2021/09/08 04:37:51;;;;;;;;;16.75;15.00;;;;;19.43;53.48;100570.28;5098955;27;69070;-60
2021/09/08 04:40:17;;;;;;;;;18.25;17.75;;;;;19.40;53.60;100567.16;5098968;27;61745;-60
2021/09/08 04:42:42;;;;;;;;;19.25;16.00;;;;;19.37;53.68;100560.41;5098786;27;69665;-60
2021/09/08 04:45:08;;;;;;;;;14.50;14.50;;;;;19.33;53.81;100563.66;5099579;27;45393;-60
2021/09/08 04:47:33;;;;;;;;;18.00;16.50;;;;;19.29;53.69;100571.19;5099509;27;45294;-60
2021/09/08 04:49:59;;;;;;;;;20.50;15.25;;;;;19.23;54.03;100561.31;5099204;27;54980;-61
2021/09/08 04:52:24;;;;;;;;;15.75;15.75;;;;;19.21;54.08;100569.50;5098637;27;67463;-60
2021/09/08 04:54:49;;;;;;;;;19.00;17.00;;;;;19.19;54.06;100568.03;5099263;27;52477;-61
2021/09/08 04:57:15;;;;;;;;;21.00;16.50;;;;;19.15;54.10;100559.63;5098722;27;60679;-60
2021/09/08 04:59:40;;;;;;;;;18.00;15.25;;;;;19.15;54.26;100558.78;5098811;27;64050;-59
2021/09/08 05:02:05;;;;;;;;;18.00;14.75;;;;;19.13;53.93;100561.66;5098803;27;61924;-60
2021/09/08 05:04:31;;;;;;;;;17.25;16.00;;;;;19.14;54.20;100555.31;5098353;27;46143;-60
2021/09/08 05:06:56;;;;;;;;;19.75;17.75;;;;;19.13;54.07;100561.66;5098470;27;68774;-61
2021/09/08 05:09:22;;;;;;;;;16.25;14.00;;;;;19.12;54.32;100566.13;5080637;27;50127;-60
2021/09/08 05:11:47;;;;;;;;;17.25;15.00;;;;;19.08;54.29;100564.06;5098401;27;67220;-61
2021/09/08 05:14:12;;;;;;;;;15.25;15.25;;;;;19.04;54.21;100554.81;5098801;27;58111;-59
2021/09/08 05:16:38;;;;;;;;;23.00;19.25;;;;;18.99;54.56;100560.72;5099238;27;45331;-60
2021/09/08 05:19:03;;;;;;;;;16.25;16.25;;;;;19.01;54.61;100561.34;5098287;27;62567;-61
2021/09/08 05:21:28;;;;;;;;;16.75;15.25;;;;;19.01;54.58;100564.00;5098954;27;45410;-61
2021/09/08 05:23:54;;;;;;;;;15.25;15.00;;;;;19.00;54.61;100558.84;5098442;27;54507;-60
2021/09/08 05:26:19;;;;;;;;;19.25;18.00;;;;;18.98;54.90;100572.38;5098874;27;45313;-61
2021/09/08 05:28:45;;;;;;;;;19.00;15.50;;;;;18.93;54.81;100570.25;5098525;27;62173;-61
2021/09/08 05:31:10;;;;;;;;;18.75;15.25;;;;;18.93;54.85;100569.44;5098998;27;45579;-61
2021/09/08 05:33:36;;;;;;;;;15.50;14.25;;;;;18.91;55.34;100561.63;5098735;27;46603;-60
2021/09/08 05:36:01;;;;;;;;;19.25;15.25;;;;;18.89;55.28;100570.81;5097800;27;69051;-60
2021/09/08 05:38:26;;;;;;;;;17.25;16.75;;;;;18.86;55.33;100556.03;5098244;27;58963;-60
2021/09/08 05:40:52;;;;;;;;;17.75;15.25;;;;;18.87;55.32;100559.53;5098839;27;45410;-60
2021/09/08 05:43:17;;;;;;;;;18.75;17.00;;;;;18.89;55.05;100555.66;5097529;27;72071;-61
2021/09/08 05:45:43;;;;;;;;;17.75;17.75;;;;;18.93;54.76;100554.25;5098248;27;45314;-61
2021/09/08 05:48:09;;;;;;;;;18.75;18.25;;;;;18.96;54.69;100559.25;5098713;27;45413;-59
2021/09/08 05:50:34;;;;;;;;;19.50;18.00;;;;;19.01;54.89;100561.34;5098598;27;45347;-60
2021/09/08 05:53:03;;;;;;;;;16.50;14.75;;;;;19.05;54.92;100554.63;5097521;27;69342;-60
2021/09/08 05:55:28;;;;;;;;;18.00;16.50;;;;;19.12;54.39;100562.66;5098441;27;45191;-59
2021/09/08 05:57:53;;;;;;;;;18.50;17.75;;;;;19.15;54.57;100556.13;5098334;27;45161;-59
2021/09/08 06:00:19;;;;;;;;;17.75;16.00;;;;;19.20;54.62;100559.88;5097592;27;67612;-61
2021/09/08 06:02:44;;;;;;;;;18.50;17.00;;;;;19.26;54.14;100561.75;5097984;27;60565;-60
2021/09/08 06:05:10;;;;;;;;;19.75;16.25;;;;;19.32;53.96;100562.81;5098118;27;45283;-60
2021/09/08 06:07:35;;;;;;;;;14.00;13.00;;;;;19.37;53.82;100565.72;5098473;27;45355;-60
2021/09/08 06:10:01;;;;;;;;;18.75;16.00;;;;;19.45;53.69;100562.09;5098318;27;45565;-60
2021/09/08 06:12:26;;;;;;;;;21.25;17.75;;;;;19.50;53.84;100564.19;5097187;27;72470;-60
2021/09/08 06:14:51;;;;;;;;;20.75;18.50;;;;;19.54;53.45;100568.91;5098010;27;45532;-60
2021/09/08 06:17:17;;;;;;;;;22.00;21.00;;;;;19.60;53.46;100569.16;5077867;27;59179;-60
2021/09/08 06:19:42;;;;;;;;;22.25;16.75;;;;;19.66;53.27;100568.38;5097352;27;62284;-60
2021/09/08 06:22:07;;;;;;;;;19.00;18.25;;;;;19.69;53.29;100574.13;5097684;27;46159;-60
2021/09/08 06:24:33;;;;;;;;;18.50;17.50;;;;;19.76;53.26;100563.53;5097231;27;57848;-60
2021/09/08 06:26:59;;;;;;;;;19.75;19.50;;;;;19.83;52.95;100560.88;5097457;27;57792;-61
2021/09/08 06:29:25;;;;;;;;;19.50;17.50;;;;;19.95;52.94;100570.00;5097110;27;45628;-60
2021/09/08 06:31:50;;;;;;;;;21.00;19.50;;;;;20.06;52.60;100559.81;5097775;27;46464;-61
2021/09/08 06:34:16;;;;;;;;;20.25;19.25;;;;;20.16;52.46;100554.91;5097938;27;45395;-61
2021/09/08 06:36:41;;;;;;;;;21.75;19.50;;;;;20.28;52.50;100552.50;5097005;27;69257;-60
2021/09/08 06:39:06;;;;;;;;;27.25;26.00;;;;;20.38;51.95;100549.44;5078721;27;66222;-60
2021/09/08 06:41:32;;;;;;;;;24.75;20.75;;;;;20.46;51.88;100552.75;5096615;27;73069;-60
2021/09/08 06:43:57;;;;;;;;;20.50;18.25;;;;;20.57;51.38;100547.84;5096937;27;64438;-60
2021/09/08 06:46:22;;;;;;;;;18.25;15.25;;;;;20.65;51.18;100544.19;5097205;27;56358;-61
2021/09/08 06:48:48;;;;;;;;;20.50;16.25;;;;;20.73;51.45;100536.81;5097037;27;63846;-60
2021/09/08 06:51:13;;;;;;;;;19.25;18.75;;;;;20.82;51.33;100534.78;5096621;27;73756;-61
2021/09/08 06:53:38;;;;;;;;;20.50;17.00;;;;;20.94;50.82;100526.97;5097726;27;45212;-60
2021/09/08 06:56:05;;;;;;;;;20.25;18.50;;;;;21.05;50.73;100523.69;5097560;27;45200;-60
2021/09/08 06:58:31;;;;;;;;;20.25;18.00;;;;;21.17;50.17;100521.25;5097546;27;45544;-61
2021/09/08 07:00:56;;;;;;;;;21.25;19.25;;;;;21.27;50.43;100522.63;5096696;27;65689;-60
2021/09/08 07:03:21;;;;;;;;;18.75;16.75;;;;;21.40;49.99;100519.16;5096987;27;56534;-61
2021/09/08 07:05:47;;;;;;;;;20.00;16.25;;;;;21.50;50.06;100512.34;5096573;27;65733;-60
2021/09/08 07:08:14;;;;;;;;;20.75;16.75;;;;;21.63;49.51;100516.84;5096623;27;63897;-61
2021/09/08 07:10:40;;;;;;;;;20.50;17.25;;;;;21.78;49.06;100515.78;5096425;27;46162;-62
2021/09/08 07:13:05;;;;;;;;;17.25;17.25;;;;;21.88;48.50;100515.31;5097092;27;45434;-61
2021/09/08 07:15:31;;;;;;;;;20.00;17.50;;;;;21.96;48.87;100517.78;5097503;27;45907;-60
2021/09/08 07:17:56;;;;;;;;;19.25;17.00;;;;;22.05;48.89;100521.84;5096591;27;61844;-60
2021/09/08 07:20:23;;;;;;;;;20.00;17.25;;;;;22.19;48.21;100516.44;5096079;27;73985;-60
2021/09/08 07:22:48;;;;;;;;;17.75;17.25;;;;;22.34;47.75;100511.59;5097047;27;45236;-61
2021/09/08 07:25:13;;;;;;;;;16.00;15.25;;;;;22.48;48.07;100514.22;5097307;27;45221;-61
2021/09/08 07:27:39;;;;;;;;;17.00;16.50;;;;;22.67;47.86;100520.50;5096097;27;59394;-60
2021/09/08 07:30:04;;;;;;;;;19.25;15.00;;;;;22.85;47.14;100521.59;5096111;27;71814;-61
2021/09/08 07:32:30;;;;;;;;;18.25;17.50;;;;;23.03;47.07;100528.88;5097120;27;45382;-61
2021/09/08 07:34:58;;;;;;;;;20.25;18.00;;;;;23.20;46.72;100523.78;5096428;27;60349;-61
2021/09/08 07:37:24;;;;;;;;;17.25;17.00;;;;;23.39;46.54;100519.28;5096163;27;45302;-61
2021/09/08 07:39:50;;;;;;;;;18.75;18.25;;;;;23.54;45.92;100522.44;5078513;27;45391;-61
2021/09/08 07:42:16;;;;;;;;;17.00;17.00;;;;;23.71;45.95;100516.47;5095891;27;70015;-60
2021/09/08 07:44:42;;;;;;;;;25.50;24.50;;;;;23.88;45.52;100519.38;5096969;27;45247;-61
2021/09/08 07:47:08;;;;;;;;;19.50;17.25;;;;;24.02;44.67;100521.94;5097054;27;45223;-61
2021/09/08 07:49:33;;;;;;;;;20.00;15.00;;;;;24.16;44.80;100518.00;5076895;27;61966;-61
2021/09/08 07:51:59;;;;;;;;;19.00;17.75;;;;;24.25;44.79;100510.47;5095933;27;45388;-61
2021/09/08 07:54:24;;;;;;;;;22.25;19.00;;;;;24.36;44.28;100508.84;5095914;27;66398;-60
2021/09/08 07:56:50;;;;;;;;;16.75;16.25;;;;;24.45;43.85;100513.66;5096695;27;45496;-61
2021/09/08 07:59:15;;;;;;;;;16.50;15.75;;;;;24.54;43.94;100513.34;5078414;27;46144;-61
2021/09/08 08:01:41;;;;;;;;;16.75;16.00;;;;;24.68;44.06;100504.03;5077401;27;63362;-61
2021/09/08 08:04:09;;;;;;;;;20.00;17.25;;;;;24.82;43.48;100504.66;5096832;27;45341;-61
2021/09/08 08:06:35;;;;;;;;;16.00;14.75;;;;;24.97;43.33;100504.19;5096640;27;45406;-61
2021/09/08 08:09:00;;;;;;;;;15.50;14.75;;;;;25.13;42.79;100499.19;5096553;27;47152;-60
2021/09/08 08:11:25;;;;;;;;;17.50;15.00;;;;;25.29;42.65;100500.34;5095827;27;65556;-61
2021/09/08 08:13:51;;;;;;;;;18.75;17.25;;;;;25.43;42.20;100506.31;5095915;27;63423;-61
2021/09/08 08:16:16;;;;;;;;;18.00;17.00;;;;;25.56;42.15;100495.31;5096079;27;52487;-62
2021/09/08 08:18:42;;;;;;;;;17.50;15.25;;;;;25.71;42.21;100504.75;5095419;27;71216;-61
2021/09/08 08:21:07;;;;;;;;;15.75;15.75;;;;;25.86;41.96;100510.44;5077102;27;45239;-61
2021/09/08 08:23:32;;;;;;;;;16.25;14.50;;;;;25.99;41.25;100503.13;5096358;27;45403;-61
2021/09/08 08:25:58;;;;;;;;;19.50;16.25;;;;;26.11;41.43;100509.28;5095891;27;51543;-60
2021/09/08 08:28:23;;;;;;;;;19.25;17.75;;;;;26.25;41.02;100504.44;5095249;27;70871;-62
2021/09/08 08:30:49;;;;;;;;;17.00;15.50;;;;;26.37;40.74;100507.09;5095508;27;61628;-61
2021/09/08 08:33:15;;;;;;;;;16.00;16.00;;;;;26.55;40.46;100516.00;5096284;27;45239;-61
2021/09/08 08:35:40;;;;;;;;;5.50;3.00;;;;;26.68;40.20;100507.59;5095967;27;55585;-61
2021/09/08 08:38:05;;;;;;;;;18.50;17.00;;;;;26.79;39.97;100509.41;5094449;27;62249;-60
2021/09/08 08:40:31;;;;;;;;;17.75;15.00;;;;;26.89;39.99;100510.66;5097400;27;62407;-61
2021/09/08 08:42:57;;;;;;;;;20.25;17.00;;;;;27.00;39.99;100504.38;5099857;27;45352;-61
2021/09/08 08:45:22;;;;;;;;;17.25;15.50;;;;;27.16;39.79;100507.28;5099488;27;46904;-61
2021/09/08 08:47:48;;;;;;;;;16.00;15.25;;;;;27.29;39.33;100493.44;5080282;27;70673;-61
2021/09/08 08:50:15;;;;;;;;;16.50;16.00;;;;;27.48;39.51;100495.88;5099517;27;45602;-62
2021/09/08 08:52:41;;;;;;;;;22.00;17.75;;;;;27.65;38.55;100491.22;5081555;27;45343;-61
2021/09/08 08:55:07;;;;;;;;;14.50;13.50;;;;;27.79;38.28;100499.75;5099390;27;45358;-61
2021/09/08 08:57:32;;;;;;;;;15.00;14.50;;;;;27.95;38.18;100498.03;5080641;27;46310;-62
2021/09/08 08:59:57;;;;;;;;;19.25;16.25;;;;;28.10;38.10;100499.25;5098427;27;69014;-61
2021/09/08 09:02:32;;;;;;;;;18.25;15.75;;;;;28.19;38.08;100492.34;5098572;27;61804;-61
2021/09/08 09:05:03;;;;;;;;;17.25;15.25;;;;;28.22;38.08;100486.44;5099309;27;45255;-60
2021/09/08 09:07:33;;;;;;;;;18.00;16.50;;;;;28.33;37.50;100497.34;5097828;27;46446;-61
2021/09/08 09:10:02;;;;;;;;;15.25;15.00;;;;;28.45;37.43;100487.19;5099203;27;45280;-62
2021/09/08 09:12:29;;;;;;;;;16.75;16.00;;;;;28.59;36.95;100476.75;5099243;27;45374;-61
2021/09/08 09:14:58;;;;;;;;;15.75;14.50;;;;;28.73;37.57;100474.44;5080896;27;45462;-61
2021/09/08 09:17:28;;;;;;;;;17.25;16.25;;;;;28.85;36.94;100471.59;5097877;27;46206;-61
2021/09/08 09:19:54;;;;;;;;;17.00;14.25;;;;;28.93;36.71;100472.97;5081399;27;45410;-61
2021/09/08 09:22:19;;;;;;;;;14.00;14.00;;;;;29.02;36.52;100460.59;5098925;27;45471;-61
2021/09/08 09:24:47;;;;;;;;;17.75;15.00;;;;;29.12;37.03;100466.06;5098086;27;64610;-62
2021/09/08 09:27:13;;;;;;;;;15.00;14.75;;;;;29.18;36.28;100467.69;5080249;27;46181;-61
2021/09/08 09:29:42;;;;;;;;;15.00;14.00;;;;;29.18;36.65;100458.78;5098937;27;45236;-61
2021/09/08 09:32:08;;;;;;;;;17.50;15.75;;;;;29.24;36.06;100459.59;5080671;27;45292;-62
2021/09/08 09:34:35;;;;;;;;;17.25;17.25;;;;;29.32;36.10;100456.41;5098981;27;45318;-61
2021/09/08 09:37:00;;;;;;;;;16.25;16.00;;;;;29.42;36.35;100451.06;5098779;27;46084;-61
2021/09/08 09:39:33;;;;;;;;;18.25;16.50;;;;;29.51;36.45;100454.06;5097810;27;66156;-62
2021/09/08 09:42:09;;;;;;;;;15.75;15.50;;;;;29.62;36.28;100441.41;5098774;27;45255;-62
2021/09/08 09:44:34;;;;;;;;;14.75;13.25;;;;;29.77;35.94;100443.31;5081621;27;45356;-61
2021/09/08 09:47:02;;;;;;;;;16.50;16.00;;;;;29.91;35.67;100446.31;5098588;27;48356;-61
2021/09/08 09:49:30;;;;;;;;;14.75;13.75;;;;;30.05;35.22;100450.16;5098554;27;45453;-62
2021/09/08 09:51:56;;;;;;;;;16.25;15.00;;;;;30.15;34.96;100451.25;5080073;27;45314;-61
2021/09/08 09:54:22;;;;;;;;;15.50;15.25;;;;;30.14;34.86;100447.72;5098109;27;55358;-61
2021/09/08 09:56:48;;;;;;;;;14.25;13.50;;;;;30.16;34.88;100442.84;5098366;27;47621;-61
2021/09/08 09:59:13;;;;;;;;;18.25;14.25;;;;;30.26;34.89;100439.31;5080239;27;45372;-62
2021/09/08 10:01:38;;;;;;;;;15.00;13.75;;;;;30.39;34.62;100445.28;5097642;27;63235;-62
2021/09/08 10:04:04;;;;;;;;;16.50;15.50;;;;;30.50;34.47;100447.72;5079975;27;45491;-61
2021/09/08 10:06:29;;;;;;;;;15.00;14.75;;;;;30.61;34.22;100448.56;5062026;27;70954;-61
2021/09/08 10:08:58;;;;;;;;;19.75;18.50;;;;;30.65;34.71;100440.69;5062027;27;70869;-62
2021/09/08 10:11:25;;;;;;;;;15.50;15.50;;;;;30.71;34.30;100436.09;5080411;27;45364;-62
2021/09/08 10:13:59;;;;;;;;;15.00;14.25;;;;;30.72;33.91;100433.09;5098196;27;45310;-62
2021/09/08 10:16:26;;;;;;;;;14.25;13.25;;;;;30.77;34.72;100427.66;5062744;27;47071;-60
2021/09/08 10:18:51;;;;;;;;;14.00;14.00;;;;;30.85;34.46;100428.97;5079448;27;52331;-62
2021/09/08 10:21:19;;;;;;;;;12.00;10.75;;;;;30.97;34.17;100419.72;5097946;27;45748;-61
2021/09/08 10:23:55;;;;;;;;;14.00;13.00;;;;;31.09;33.86;100422.94;5098056;27;45367;-61
2021/09/08 10:26:27;;;;;;;;;14.75;14.75;;;;;31.21;33.52;100426.19;5080472;27;46206;-61
2021/09/08 10:28:53;;;;;;;;;14.50;14.50;;;;;31.33;33.15;100422.31;5097672;27;45918;-62
2021/09/08 10:31:18;;;;;;;;;14.75;14.00;;;;;31.45;33.34;100422.81;5078901;27;45413;-61
2021/09/08 10:33:44;;;;;;;;;16.00;16.00;;;;;31.57;33.03;100421.66;5097009;27;68541;-61
2021/09/08 10:36:10;;;;;;;;;16.75;15.00;;;;;31.55;33.53;100413.78;5097505;27;45899;-62
2021/09/08 10:38:35;;;;;;;;;16.00;16.00;;;;;31.62;33.25;100424.34;5096647;27;45847;-61
2021/09/08 10:41:02;;;;;;;;;17.00;16.50;;;;;31.62;33.13;100418.94;5096868;27;62487;-62
2021/09/08 10:43:32;;;;;;;;;16.75;16.00;;;;;31.64;32.86;100422.97;5079474;27;45231;-61
2021/09/08 10:45:58;;;;;;;;;16.00;14.50;;;;;31.66;32.98;100420.00;5096714;27;45397;-61
2021/09/08 10:48:38;;;;;;;;;12.25;12.00;;;;;31.64;33.28;100427.59;5097534;27;45433;-61
2021/09/08 10:51:08;;;;;;;;;16.00;15.25;;;;;31.68;32.66;100421.31;5097798;27;45481;-62
2021/09/08 10:53:34;;;;;;;;;18.00;13.00;;;;;31.81;32.93;100421.81;5097578;27;45522;-61
2021/09/08 10:56:00;;;;;;;;;18.25;16.00;;;;;31.94;32.87;100415.75;5097096;27;46041;-61
2021/09/08 10:58:58;;;;;;;;;14.25;14.25;;;;;32.02;32.76;100414.31;5097437;27;45461;-61
2021/09/08 11:01:24;;;;;;;;;15.25;12.25;;;;;32.11;32.68;100415.34;5097604;27;45369;-62
2021/09/08 11:03:50;;;;;;;;;13.00;13.00;;;;;32.21;32.44;100419.88;5096485;27;45546;-61